createdAt,value
2019-03-30T00:00:30.980Z,101134.20
2019-03-30T00:03:02.350Z,101122.36
2019-03-30T00:05:32.778Z,101131.84
2019-03-30T00:08:03.196Z,101128.30
2019-03-30T00:10:33.748Z,101122.91
2019-03-30T00:13:04.165Z,101115.49
2019-03-30T00:15:34.611Z,101108.73
2019-03-30T00:18:05.001Z,101120.60
2019-03-30T00:20:35.458Z,101123.78
2019-03-30T00:23:05.860Z,101131.73
2019-03-30T00:25:36.359Z,101125.14
2019-03-30T00:28:06.775Z,101134.08
2019-03-30T00:30:37.246Z,101137.48
2019-03-30T00:33:07.689Z,101139.00
2019-03-30T00:35:38.167Z,101142.88
2019-03-30T00:38:08.599Z,101131.93
2019-03-30T00:40:39.060Z,101134.44
2019-03-30T00:43:09.501Z,101128.37
2019-03-30T00:45:39.984Z,101130.91
2019-03-30T00:48:10.454Z,101128.52
2019-03-30T00:50:40.959Z,101122.44
2019-03-30T00:53:11.376Z,101130.23
2019-03-30T00:55:41.838Z,101116.55
2019-03-30T00:58:12.259Z,101117.90
2019-03-30T01:00:42.753Z,101117.38
2019-03-30T01:03:13.394Z,101116.05
2019-03-30T01:05:43.834Z,101115.38
2019-03-30T01:08:14.261Z,101116.42
2019-03-30T01:10:44.804Z,101106.96
2019-03-30T01:13:15.235Z,101108.97
2019-03-30T01:15:47.121Z,101102.07
2019-03-30T01:18:17.543Z,101107.83
2019-03-30T01:20:48.018Z,101102.58
2019-03-30T01:23:18.445Z,101102.78
2019-03-30T01:25:48.920Z,101094.83
2019-03-30T01:28:19.367Z,101101.72
2019-03-30T01:30:49.819Z,101095.82
2019-03-30T01:33:20.265Z,101101.20
2019-03-30T01:35:50.704Z,101099.36
2019-03-30T01:38:21.149Z,101099.53
2019-03-30T01:40:51.625Z,101101.87
2019-03-30T01:43:22.061Z,101091.42
2019-03-30T01:45:52.527Z,101095.47
2019-03-30T01:48:22.934Z,101100.02
2019-03-30T01:50:53.377Z,101096.50
2019-03-30T01:53:23.743Z,101094.14
2019-03-30T01:55:54.228Z,101089.92
2019-03-30T01:58:24.660Z,101097.16
2019-03-30T02:00:55.125Z,101094.78
2019-03-30T02:03:26.440Z,101091.75
2019-03-30T02:05:56.913Z,101087.53
2019-03-30T02:08:27.328Z,101085.50
2019-03-30T02:10:57.880Z,101086.70
2019-03-30T02:13:28.286Z,101084.02
2019-03-30T02:15:58.736Z,101086.88
2019-03-30T02:18:29.438Z,101087.19
2019-03-30T02:20:59.970Z,101093.58
2019-03-30T02:23:30.393Z,101086.51
2019-03-30T02:26:00.847Z,101085.48
2019-03-30T02:28:31.273Z,101084.96
2019-03-30T02:31:01.764Z,101084.13
2019-03-30T02:33:32.185Z,101083.09
2019-03-30T02:36:02.694Z,101082.41
2019-03-30T02:38:33.110Z,101088.96
2019-03-30T02:41:03.609Z,101086.97
2019-03-30T02:43:34.041Z,101088.98
2019-03-30T02:46:06.559Z,101092.33
2019-03-30T02:48:36.989Z,101092.98
2019-03-30T02:51:07.450Z,101093.14
2019-03-30T02:53:37.860Z,101098.15
2019-03-30T02:56:08.361Z,101093.11
2019-03-30T02:58:38.762Z,101081.34
2019-03-30T03:01:09.266Z,101084.36
2019-03-30T03:03:40.560Z,101081.16
2019-03-30T03:06:11.136Z,101081.13
2019-03-30T03:08:41.545Z,101079.10
2019-03-30T03:11:12.111Z,101074.01
2019-03-30T03:13:42.550Z,101076.34
2019-03-30T03:16:13.044Z,101071.83
2019-03-30T03:18:43.429Z,101072.18
2019-03-30T03:21:13.902Z,101069.33
2019-03-30T03:23:44.303Z,101069.16
2019-03-30T03:26:14.786Z,101072.38
2019-03-30T03:28:45.216Z,101067.66
2019-03-30T03:31:15.680Z,101072.72
2019-03-30T03:33:46.130Z,101070.73
2019-03-30T03:36:16.570Z,101071.73
2019-03-30T03:38:46.944Z,101071.21
2019-03-30T03:41:17.438Z,101072.23
2019-03-30T03:43:47.865Z,101072.23
2019-03-30T03:46:18.331Z,101077.30
2019-03-30T03:48:48.782Z,101077.97
2019-03-30T03:51:26.072Z,101078.00
2019-03-30T03:53:53.202Z,101083.88
2019-03-30T03:56:25.949Z,101077.66
2019-03-30T03:58:57.888Z,101085.75
2019-03-30T04:01:28.572Z,101081.73
2019-03-30T04:04:00.662Z,101084.08
2019-03-30T04:06:33.005Z,101074.82
2019-03-30T04:09:04.887Z,101083.73
2019-03-30T04:11:38.093Z,101083.92
2019-03-30T04:14:11.743Z,101089.66
2019-03-30T04:16:42.202Z,101093.22
2019-03-30T04:19:12.606Z,101091.56
2019-03-30T04:21:44.811Z,101099.83
2019-03-30T04:24:15.201Z,101108.58
2019-03-30T04:26:45.685Z,101109.78
2019-03-30T04:29:16.104Z,101112.52
2019-03-30T04:31:46.597Z,101114.03
2019-03-30T04:34:17.037Z,101119.94
2019-03-30T04:36:47.562Z,101117.92
2019-03-30T04:39:18.001Z,101116.58
2019-03-30T04:41:48.486Z,101128.58
2019-03-30T04:44:18.912Z,101114.41
2019-03-30T04:46:49.411Z,101123.16
2019-03-30T04:49:19.854Z,101128.41
2019-03-30T04:51:57.415Z,101129.89
2019-03-30T04:54:22.499Z,101134.12
2019-03-30T04:56:52.990Z,101136.80
2019-03-30T04:59:23.437Z,101132.91
2019-03-30T05:01:53.927Z,101131.33
2019-03-30T05:04:25.280Z,101136.39
2019-03-30T05:06:55.785Z,101137.67
2019-03-30T05:09:26.213Z,101144.73
2019-03-30T05:11:56.784Z,101141.80
2019-03-30T05:14:27.282Z,101148.70
2019-03-30T05:16:57.792Z,101152.05
2019-03-30T05:19:28.275Z,101149.01
2019-03-30T05:22:11.443Z,101153.40
2019-03-30T05:24:30.901Z,101155.48
2019-03-30T05:27:01.404Z,101149.80
2019-03-30T05:29:31.855Z,101146.22
2019-03-30T05:32:02.339Z,101141.89
2019-03-30T05:34:32.783Z,101144.80
2019-03-30T05:37:03.299Z,101145.77
2019-03-30T05:39:33.756Z,101141.91
2019-03-30T05:42:04.224Z,101141.16
2019-03-30T05:44:34.670Z,101153.45
2019-03-30T05:47:05.140Z,101151.13
2019-03-30T05:49:35.596Z,101155.45
2019-03-30T05:52:06.096Z,101155.13
2019-03-30T05:54:36.564Z,101161.89
2019-03-30T05:57:07.065Z,101157.83
2019-03-30T05:59:37.553Z,101153.23
2019-03-30T06:02:08.022Z,101152.13
2019-03-30T06:04:38.803Z,101158.35
2019-03-30T06:07:09.291Z,101154.88
2019-03-30T06:09:39.764Z,101152.20
2019-03-30T06:12:10.320Z,101156.81
2019-03-30T06:14:40.744Z,101159.86
2019-03-30T06:17:11.248Z,101155.50
2019-03-30T06:19:41.702Z,101156.16
2019-03-30T06:22:12.169Z,101160.29
2019-03-30T06:24:42.593Z,101151.65
2019-03-30T06:27:13.083Z,101150.89
2019-03-30T06:29:43.477Z,101143.78
2019-03-30T06:32:13.970Z,101152.84
2019-03-30T06:34:44.414Z,101150.42
2019-03-30T06:37:14.915Z,101147.62
2019-03-30T06:39:45.354Z,101152.70
2019-03-30T06:42:15.807Z,101150.52
2019-03-30T06:44:46.284Z,101147.06
2019-03-30T06:47:16.807Z,101147.47
2019-03-30T06:49:47.290Z,101148.14
2019-03-30T06:52:17.890Z,101141.17
2019-03-30T06:54:48.353Z,101143.73
2019-03-30T06:57:18.835Z,101143.13
2019-03-30T06:59:49.299Z,101142.73
2019-03-30T07:02:19.821Z,101142.35
2019-03-30T07:04:51.789Z,101142.92
2019-03-30T07:07:23.718Z,101139.66
2019-03-30T07:09:54.241Z,101138.02
2019-03-30T07:12:24.892Z,101140.24
2019-03-30T07:14:58.279Z,101136.50
2019-03-30T07:17:29.974Z,101134.00
2019-03-30T07:20:02.734Z,101134.23
2019-03-30T07:22:33.244Z,101134.49
2019-03-30T07:25:03.800Z,101134.78
2019-03-30T07:27:34.326Z,101131.56
2019-03-30T07:30:08.564Z,101131.40
2019-03-30T07:32:39.092Z,101131.62
2019-03-30T07:35:09.538Z,101130.86
2019-03-30T07:37:40.052Z,101125.47
2019-03-30T07:40:10.727Z,101131.20
2019-03-30T07:42:41.192Z,101126.67
2019-03-30T07:45:12.943Z,101131.50
2019-03-30T07:47:43.481Z,101128.36
2019-03-30T07:50:14.009Z,101121.05
2019-03-30T07:52:44.519Z,101127.21
2019-03-30T07:55:14.976Z,101125.22
2019-03-30T07:57:45.468Z,101121.64
2019-03-30T08:00:16.829Z,101120.48
2019-03-30T08:02:47.322Z,101117.09
2019-03-30T08:05:18.785Z,101116.92
2019-03-30T08:07:49.259Z,101118.80
2019-03-30T08:10:19.789Z,101116.38
2019-03-30T08:12:50.354Z,101117.83
2019-03-30T08:15:20.939Z,101122.38
2019-03-30T08:17:53.199Z,101123.61
2019-03-30T08:20:24.150Z,101130.87
2019-03-30T08:22:54.614Z,101129.27
2019-03-30T08:25:25.205Z,101138.25
2019-03-30T08:27:55.704Z,101141.63
2019-03-30T08:30:26.145Z,101149.73
2019-03-30T08:32:56.735Z,101148.23
2019-03-30T08:35:27.230Z,101156.34
2019-03-30T08:37:57.828Z,101152.97
2019-03-30T08:40:28.368Z,101154.78
2019-03-30T08:42:58.902Z,101162.53
2019-03-30T08:45:29.377Z,101162.89
2019-03-30T08:47:59.887Z,101160.85
2019-03-30T08:50:30.346Z,101163.37
2019-03-30T08:53:00.879Z,101159.56
2019-03-30T08:55:31.372Z,101161.78
2019-03-30T08:58:01.975Z,101166.66
2019-03-30T09:00:40.268Z,101156.29
2019-03-30T09:03:10.991Z,101164.73
2019-03-30T09:05:42.388Z,101166.50
2019-03-30T09:08:12.897Z,101167.41
2019-03-30T09:10:43.450Z,101173.40
2019-03-30T09:13:15.626Z,101167.00
2019-03-30T09:15:46.083Z,101161.91
2019-03-30T09:18:16.607Z,101163.52
2019-03-30T09:20:47.074Z,101159.93
2019-03-30T09:23:17.619Z,101158.45
2019-03-30T09:25:48.098Z,101156.91
2019-03-30T09:28:18.730Z,101155.27
2019-03-30T09:30:49.170Z,101156.78
2019-03-30T09:33:19.782Z,101156.59
2019-03-30T09:35:50.318Z,101157.27
2019-03-30T09:38:20.855Z,101153.70
2019-03-30T09:40:51.361Z,101150.94
2019-03-30T09:43:21.867Z,101157.06
2019-03-30T09:45:52.353Z,101152.98
2019-03-30T09:48:22.861Z,101147.81
2019-03-30T09:50:53.312Z,101153.28
2019-03-30T09:53:23.800Z,101156.66
2019-03-30T09:55:54.277Z,101154.66
2019-03-30T09:58:24.774Z,101160.93
2019-03-30T10:00:55.220Z,101157.59
2019-03-30T10:03:25.748Z,101170.53
2019-03-30T10:05:57.082Z,101160.13
2019-03-30T10:08:27.632Z,101157.08
2019-03-30T10:10:58.131Z,101158.41
2019-03-30T10:13:28.750Z,101160.95
2019-03-30T10:15:59.218Z,101168.80
2019-03-30T10:18:29.813Z,101168.86
2019-03-30T10:21:00.277Z,101170.50
2019-03-30T10:23:30.806Z,101174.28
2019-03-30T10:26:01.351Z,101180.05
2019-03-30T10:28:31.899Z,101176.63
2019-03-30T10:31:02.390Z,101173.63
2019-03-30T10:33:32.913Z,101169.63
2019-03-30T10:36:03.371Z,101172.11
2019-03-30T10:38:34.277Z,101171.42
2019-03-30T10:41:04.734Z,101174.55
2019-03-30T10:43:35.323Z,101171.99
2019-03-30T10:46:06.241Z,101168.81
2019-03-30T10:48:36.877Z,101172.59
2019-03-30T10:51:07.365Z,101171.02
2019-03-30T10:53:39.427Z,101158.34
2019-03-30T10:56:09.979Z,101153.86
2019-03-30T10:58:40.492Z,101163.15
2019-03-30T11:01:11.082Z,101155.95
2019-03-30T11:03:41.599Z,101155.73
2019-03-30T11:06:13.003Z,101154.22
2019-03-30T11:08:43.708Z,101159.54
2019-03-30T11:11:14.240Z,101157.81
2019-03-30T11:13:44.851Z,101151.91
2019-03-30T11:16:15.317Z,101143.56
2019-03-30T11:18:45.894Z,101151.84
2019-03-30T11:21:16.502Z,101161.83
2019-03-30T11:23:47.033Z,101162.30
2019-03-30T11:26:17.869Z,101159.10
2019-03-30T11:28:48.417Z,101155.36
2019-03-30T11:31:19.901Z,101156.69
2019-03-30T11:33:50.395Z,101155.49
2019-03-30T11:36:20.846Z,101151.39
2019-03-30T11:38:51.399Z,101155.27
2019-03-30T11:41:24.851Z,101160.39
2019-03-30T11:43:53.994Z,101155.11
2019-03-30T11:46:24.437Z,101157.22
2019-03-30T11:48:54.938Z,101148.83
2019-03-30T11:51:26.640Z,101148.58
2019-03-30T11:53:57.177Z,101140.30
2019-03-30T11:56:27.606Z,101143.09
2019-03-30T11:58:58.127Z,101145.22
2019-03-30T12:01:28.656Z,101146.89
2019-03-30T12:03:59.109Z,101142.30
2019-03-30T12:06:30.362Z,101141.44
2019-03-30T12:09:00.866Z,101143.70
2019-03-30T12:11:31.299Z,101141.84
2019-03-30T12:14:01.857Z,101142.84
2019-03-30T12:16:32.295Z,101139.93
2019-03-30T12:19:02.905Z,101134.87
2019-03-30T12:21:33.341Z,101132.77
2019-03-30T12:24:03.798Z,101132.53
2019-03-30T12:26:34.227Z,101133.44
2019-03-30T12:29:04.700Z,101128.14
2019-03-30T12:31:35.117Z,101125.53
2019-03-30T12:34:05.581Z,101118.31
2019-03-30T12:36:36.129Z,101114.95
2019-03-30T12:39:08.235Z,101118.94
2019-03-30T12:41:38.657Z,101115.52
2019-03-30T12:44:09.144Z,101115.92
2019-03-30T12:46:39.585Z,101119.79
2019-03-30T12:49:10.109Z,101111.31
2019-03-30T12:51:40.527Z,101111.31
2019-03-30T12:54:11.025Z,101106.97
2019-03-30T12:56:41.471Z,101109.77
2019-03-30T12:59:11.949Z,101102.33
2019-03-30T13:01:42.386Z,101101.06
2019-03-30T13:04:12.859Z,101104.22
2019-03-30T13:06:44.175Z,101099.48
2019-03-30T13:09:14.646Z,101101.27
2019-03-30T13:11:45.089Z,101102.88
2019-03-30T13:14:15.667Z,101109.98
2019-03-30T13:16:46.106Z,101101.37
2019-03-30T13:19:16.600Z,101103.72
2019-03-30T13:21:52.790Z,101102.73
2019-03-30T13:24:19.238Z,101107.48
2019-03-30T13:26:49.692Z,101100.09
2019-03-30T13:29:20.204Z,101103.14
2019-03-30T13:31:50.625Z,101105.78
2019-03-30T13:34:21.034Z,101095.30
2019-03-30T13:36:51.464Z,101095.30
2019-03-30T13:39:21.956Z,101102.22
2019-03-30T13:41:52.395Z,101095.24
2019-03-30T13:44:22.880Z,101099.43
2019-03-30T13:46:53.338Z,101097.31
2019-03-30T13:49:23.817Z,101096.44
2019-03-30T13:51:54.271Z,101097.09
2019-03-30T13:54:24.749Z,101100.53
2019-03-30T13:56:55.186Z,101102.90
2019-03-30T13:59:25.671Z,101102.54
2019-03-30T14:01:56.092Z,101095.55
2019-03-30T14:04:26.572Z,101094.03
2019-03-30T14:06:58.079Z,101102.16
2019-03-30T14:09:28.564Z,101104.58
2019-03-30T14:11:59.011Z,101106.27
2019-03-30T14:14:29.559Z,101110.67
2019-03-30T14:17:00.015Z,101101.75
2019-03-30T14:19:30.518Z,101098.63
2019-03-30T14:22:00.997Z,101105.48
2019-03-30T14:24:31.498Z,101104.48
2019-03-30T14:27:01.909Z,101100.41
2019-03-30T14:29:32.395Z,101102.66
2019-03-30T14:32:02.864Z,101098.48
2019-03-30T14:34:33.320Z,101106.38
2019-03-30T14:37:03.774Z,101110.04
2019-03-30T14:39:34.259Z,101109.58
2019-03-30T14:42:04.914Z,101103.97
2019-03-30T14:44:35.372Z,101111.31
2019-03-30T14:47:05.819Z,101104.97
2019-03-30T14:49:36.298Z,101105.20
2019-03-30T14:52:06.737Z,101106.43
2019-03-30T14:54:37.273Z,101106.11
2019-03-30T14:57:07.715Z,101113.00
2019-03-30T14:59:38.247Z,101106.99
2019-03-30T15:02:08.694Z,101119.92
2019-03-30T15:04:39.274Z,101114.82
2019-03-30T15:07:11.443Z,101116.05
2019-03-30T15:09:41.964Z,101117.40
2019-03-30T15:12:12.482Z,101117.76
2019-03-30T15:14:43.063Z,101122.22
2019-03-30T15:17:13.511Z,101129.60
2019-03-30T15:19:44.029Z,101129.34
2019-03-30T15:22:14.526Z,101129.67
2019-03-30T15:24:45.007Z,101134.48
2019-03-30T15:27:15.441Z,101130.19
2019-03-30T15:29:45.891Z,101124.72
2019-03-30T15:32:16.325Z,101133.56
2019-03-30T15:34:46.789Z,101134.52
2019-03-30T15:37:17.279Z,101128.17
2019-03-30T15:39:47.879Z,101129.59
2019-03-30T15:42:18.377Z,101133.75
2019-03-30T15:44:48.842Z,101133.95
2019-03-30T15:47:19.270Z,101132.53
2019-03-30T15:49:49.736Z,101133.08
2019-03-30T15:52:20.346Z,101132.63
2019-03-30T15:54:50.823Z,101129.35
2019-03-30T15:57:21.276Z,101132.30
2019-03-30T15:59:51.795Z,101135.14
2019-03-30T16:02:22.638Z,101136.00
2019-03-30T16:04:53.111Z,101131.84
2019-03-30T16:07:24.405Z,101132.91
2019-03-30T16:09:54.944Z,101143.45
2019-03-30T16:12:25.376Z,101144.95
2019-03-30T16:14:55.923Z,101148.31
2019-03-30T16:17:26.365Z,101149.47
2019-03-30T16:19:56.874Z,101148.45
2019-03-30T16:22:27.307Z,101153.58
2019-03-30T16:24:57.801Z,101153.48
2019-03-30T16:27:29.505Z,101154.56
2019-03-30T16:30:00.314Z,101163.50
2019-03-30T16:32:30.818Z,101163.58
2019-03-30T16:35:01.279Z,101167.45
2019-03-30T16:37:31.726Z,101162.63
2019-03-30T16:40:02.313Z,101168.91
2019-03-30T16:42:32.770Z,101170.27
2019-03-30T16:45:03.271Z,101170.27
2019-03-30T16:47:33.811Z,101177.50
2019-03-30T16:50:05.555Z,101185.10
2019-03-30T16:52:36.040Z,101181.00
2019-03-30T16:55:06.617Z,101186.09
2019-03-30T16:57:43.666Z,101192.73
2019-03-30T17:00:09.996Z,101192.70
2019-03-30T17:02:40.449Z,101191.63
2019-03-30T17:05:11.726Z,101197.61
2019-03-30T17:07:43.122Z,101195.55
2019-03-30T17:10:13.706Z,101195.55
2019-03-30T17:12:44.161Z,101192.81
2019-03-30T17:15:14.730Z,101192.39
2019-03-30T17:17:45.194Z,101203.20
2019-03-30T17:20:15.699Z,101203.20
2019-03-30T17:22:46.144Z,101197.06
2019-03-30T17:25:16.642Z,101195.41
2019-03-30T17:27:58.145Z,101200.02
2019-03-30T17:30:19.271Z,101211.20
2019-03-30T17:32:49.739Z,101206.19
2019-03-30T17:35:20.218Z,101213.48
2019-03-30T17:37:50.659Z,101223.34
2019-03-30T17:40:21.174Z,101214.38
2019-03-30T17:42:51.620Z,101221.04
2019-03-30T17:45:22.117Z,101223.89
2019-03-30T17:47:52.572Z,101221.38
2019-03-30T17:50:23.041Z,101233.81
2019-03-30T17:52:53.510Z,101231.00
2019-03-30T17:55:33.486Z,101222.07
2019-03-30T17:57:56.171Z,101226.26
2019-03-30T18:00:26.619Z,101230.73
2019-03-30T18:02:57.041Z,101232.42
2019-03-30T18:05:27.528Z,101228.69
2019-03-30T18:08:01.698Z,101235.64
2019-03-30T18:10:31.025Z,101233.89
2019-03-30T18:13:01.467Z,101236.17
2019-03-30T18:15:34.642Z,101238.45
2019-03-30T18:18:04.144Z,101233.64
2019-03-30T18:20:34.605Z,101237.09
2019-03-30T18:23:05.033Z,101234.95
2019-03-30T18:25:35.531Z,101234.57
2019-03-30T18:28:05.969Z,101239.42
2019-03-30T18:30:39.348Z,101238.01
2019-03-30T18:33:09.944Z,101236.66
2019-03-30T18:35:41.023Z,101240.80
2019-03-30T18:38:13.065Z,101237.48
2019-03-30T18:40:43.887Z,101239.52
2019-03-30T18:43:14.341Z,101240.92
2019-03-30T18:45:44.846Z,101247.83
2019-03-30T18:48:17.031Z,101248.02
2019-03-30T18:50:47.930Z,101248.28
2019-03-30T18:53:18.380Z,101256.92
2019-03-30T18:55:48.888Z,101257.75
2019-03-30T18:58:19.356Z,101248.89
2019-03-30T19:00:49.862Z,101251.94
2019-03-30T19:03:22.234Z,101259.86
2019-03-30T19:05:52.740Z,101253.93
2019-03-30T19:08:24.082Z,101259.84
2019-03-30T19:10:54.583Z,101259.17
2019-03-30T19:13:25.060Z,101262.90
2019-03-30T19:15:55.641Z,101261.09
2019-03-30T19:18:26.113Z,101258.33
2019-03-30T19:20:56.613Z,101261.19
2019-03-30T19:23:27.059Z,101262.09
2019-03-30T19:25:57.569Z,101269.05
2019-03-30T19:28:28.184Z,101266.25
2019-03-30T19:30:58.660Z,101273.22
2019-03-30T19:33:29.169Z,101267.27
2019-03-30T19:35:59.659Z,101272.38
2019-03-30T19:38:30.100Z,101275.55
2019-03-30T19:41:00.572Z,101271.32
2019-03-30T19:43:31.060Z,101268.50
2019-03-30T19:46:01.547Z,101272.72
2019-03-30T19:48:31.986Z,101273.42
2019-03-30T19:51:02.508Z,101275.53
2019-03-30T19:53:32.923Z,101270.11
2019-03-30T19:56:03.411Z,101271.16
2019-03-30T19:58:33.859Z,101276.88
2019-03-30T20:01:04.410Z,101279.05
2019-03-30T20:03:34.935Z,101284.16
2019-03-30T20:06:05.348Z,101282.81
2019-03-30T20:08:36.716Z,101279.23
2019-03-30T20:11:07.238Z,101284.95
2019-03-30T20:13:37.717Z,101283.12
2019-03-30T20:16:08.268Z,101286.31
2019-03-30T20:18:38.712Z,101280.58
2019-03-30T20:21:09.193Z,101275.75
2019-03-30T20:23:39.629Z,101283.74
2019-03-30T20:26:10.123Z,101286.45
2019-03-30T20:28:40.574Z,101287.59
2019-03-30T20:31:11.072Z,101286.24
2019-03-30T20:33:41.500Z,101286.45
2019-03-30T20:36:12.001Z,101285.63
2019-03-30T20:38:42.457Z,101291.00
2019-03-30T20:41:13.323Z,101286.45
2019-03-30T20:43:43.795Z,101286.16
2019-03-30T20:46:14.280Z,101288.20
2019-03-30T20:48:44.751Z,101288.88
2019-03-30T20:51:15.296Z,101289.22
2019-03-30T20:53:45.800Z,101281.93
2019-03-30T20:56:16.309Z,101280.58
2019-03-30T20:58:46.783Z,101281.79
2019-03-30T21:01:17.265Z,101276.69
2019-03-30T21:03:47.711Z,101278.04
2019-03-30T21:06:18.228Z,101279.25
2019-03-30T21:08:49.553Z,101287.34
2019-03-30T21:11:20.026Z,101288.11
2019-03-30T21:13:50.512Z,101283.67
2019-03-30T21:16:21.080Z,101281.97
2019-03-30T21:18:51.528Z,101282.62
2019-03-30T21:21:22.014Z,101279.50
2019-03-30T21:23:52.434Z,101286.41
2019-03-30T21:26:22.906Z,101281.86
2019-03-30T21:28:53.374Z,101282.03
2019-03-30T21:31:23.910Z,101285.58
2019-03-30T21:33:54.396Z,101278.30
2019-03-30T21:36:24.911Z,101282.88
2019-03-30T21:38:55.384Z,101281.37
2019-03-30T21:41:25.876Z,101289.36
2019-03-30T21:43:56.361Z,101287.00
2019-03-30T21:46:26.870Z,101290.23
2019-03-30T21:48:57.327Z,101293.11
2019-03-30T21:51:27.828Z,101283.31
2019-03-30T21:53:58.269Z,101282.13
2019-03-30T21:56:28.729Z,101288.39
2019-03-30T21:58:59.154Z,101291.42
2019-03-30T22:01:29.665Z,101293.77
2019-03-30T22:04:00.117Z,101292.27
2019-03-30T22:06:30.728Z,101288.22
2019-03-30T22:09:02.059Z,101286.70
2019-03-30T22:11:32.551Z,101285.52
2019-03-30T22:14:02.977Z,101283.99
2019-03-30T22:16:33.543Z,101279.42
2019-03-30T22:19:04.010Z,101286.34
2019-03-30T22:21:34.492Z,101289.22
2019-03-30T22:24:04.928Z,101274.33
2019-03-30T22:26:35.401Z,101284.97
2019-03-30T22:29:05.846Z,101280.06
2019-03-30T22:31:36.231Z,101274.63
2019-03-30T22:34:06.710Z,101267.72
2019-03-30T22:36:37.192Z,101275.48
2019-03-30T22:39:08.029Z,101275.62
2019-03-30T22:41:38.512Z,101271.73
2019-03-30T22:44:08.970Z,101271.04
2019-03-30T22:46:39.450Z,101273.22
2019-03-30T22:49:09.894Z,101268.03
2019-03-30T22:51:40.347Z,101273.89
2019-03-30T22:54:10.809Z,101271.87
2019-03-30T22:56:41.282Z,101263.43
2019-03-30T22:59:11.731Z,101266.13
2019-03-30T23:01:42.341Z,101263.78
2019-03-30T23:04:12.758Z,101265.30
2019-03-30T23:06:43.219Z,101259.36
2019-03-30T23:09:14.598Z,101266.80
2019-03-30T23:11:45.131Z,101261.28
2019-03-30T23:14:15.544Z,101272.61
2019-03-30T23:16:46.140Z,101270.05
2019-03-30T23:19:16.582Z,101271.73
2019-03-30T23:21:47.035Z,101271.89
2019-03-30T23:24:17.505Z,101267.47
2019-03-30T23:26:47.984Z,101266.63
2019-03-30T23:29:18.449Z,101269.45
2019-03-30T23:31:48.935Z,101267.02
2019-03-30T23:34:19.372Z,101268.94
2019-03-30T23:36:49.891Z,101264.32
2019-03-30T23:39:20.336Z,101266.95
2019-03-30T23:41:50.820Z,101269.30
2019-03-30T23:44:21.272Z,101267.03
2019-03-30T23:46:51.742Z,101264.10
2019-03-30T23:49:22.181Z,101265.29
2019-03-30T23:51:52.683Z,101270.08
2019-03-30T23:54:23.115Z,101264.77
2019-03-30T23:56:53.652Z,101270.16
2019-03-30T23:59:24.087Z,101270.78
